Time;durP1;ratioP1;P1;durP2;ratioP2;P2;SDS_P1;SDS_P2;PMS_P1;PMS_P2;Temp;Humidity;BMP_temperature;BMP_pressure;BME280_temperature;BME280_humidity;BME280_pressure;Samples;Min_cycle;Max_cycle;Signal;HPM_P1;HPM_P2
2022/12/11 00:00:05;;;;;;;;;;;-1.50;99.90;;;;;;5021337;28;19936;-64
2022/12/11 00:02:32;;;;;;;;;;;-1.50;99.90;;;;;;5018804;28;20027;-64
2022/12/11 00:04:59;;;;;;;;;;;-1.60;99.90;;;;;;5016310;28;20019;-63
2022/12/11 00:07:25;;;;;;;;;;;-1.60;99.90;;;;;;5015645;28;19935;-64
2022/12/11 00:09:52;;;;;;;;;;;-1.50;99.90;;;;;;5013800;28;19924;-64
2022/12/11 00:12:19;;;;;;;;;;;-1.60;99.90;;;;;;5016606;28;19933;-63
2022/12/11 00:14:45;;;;;;;;;;;-1.60;99.90;;;;;;5012105;28;20335;-63
2022/12/11 00:17:12;;;;;;;;;;;-1.60;99.90;;;;;;5017548;28;20015;-63
2022/12/11 00:19:39;;;;;;;;;;;-1.60;99.90;;;;;;5016277;28;20015;-63
2022/12/11 00:22:05;;;;;;;;;;;-1.60;99.90;;;;;;5029333;28;19927;-64
2022/12/11 00:24:32;;;;;;;;;;;-1.60;99.90;;;;;;5017087;28;19933;-62
2022/12/11 00:26:59;;;;;;;;;;;-1.60;99.90;;;;;;5014526;28;19935;-64
2022/12/11 00:29:25;;;;;;;;;;;-1.60;99.90;;;;;;5011421;28;19963;-63
2022/12/11 00:31:52;;;;;;;;;;;-1.60;99.90;;;;;;5014249;28;20480;-63
2022/12/11 00:34:18;;;;;;;;;;;-1.60;99.90;;;;;;5012536;28;19928;-63
2022/12/11 00:36:45;;;;;;;;;;;-1.60;99.90;;;;;;5013514;28;19931;-63
2022/12/11 00:39:12;;;;;;;;;;;-1.60;99.90;;;;;;5016370;28;19925;-63
2022/12/11 00:41:38;;;;;;;;;;;-1.60;99.90;;;;;;5015496;28;19931;-62
2022/12/11 00:44:05;;;;;;;;;;;-1.50;99.90;;;;;;5013604;28;19964;-64
2022/12/11 00:46:32;;;;;;;;;;;-1.60;99.90;;;;;;5010902;28;19936;-64
2022/12/11 00:48:59;;;;;;;;;;;-1.60;99.90;;;;;;5044636;28;20243;-63
2022/12/11 00:51:25;;;;;;;;;;;-1.60;99.90;;;;;;5013966;28;19925;-64
2022/12/11 00:53:52;;;;;;;;;;;-1.60;99.90;;;;;;5014274;28;20223;-64
2022/12/11 00:56:20;;;;;;;;;;;-1.60;99.90;;;;;;5013446;28;19961;-64
2022/12/11 00:58:48;;;;;;;;;;;-1.60;99.90;;;;;;5043367;28;20007;-64
2022/12/11 01:01:16;;;;;;;;;;;-1.60;99.90;;;;;;5010573;28;20079;-63
2022/12/11 01:03:43;;;;;;;;;;;-1.60;99.90;;;;;;5013547;28;19932;-64
2022/12/11 01:06:14;;;;;;;;;;;-1.60;99.90;;;;;;5012287;28;19929;-63
2022/12/11 01:08:41;;;;;;;;;;;-1.60;99.90;;;;;;5021934;28;19935;-64
2022/12/11 01:11:09;;;;;;;;;;;-1.60;99.90;;;;;;5013112;28;20409;-63
2022/12/11 01:13:36;;;;;;;;;;;-1.60;99.90;;;;;;5012129;28;20057;-63
2022/12/11 01:16:07;;;;;;;;;;;-1.60;99.90;;;;;;5015130;28;20383;-63
2022/12/11 01:18:34;;;;;;;;;;;-1.60;99.90;;;;;;5045448;28;19933;-63
2022/12/11 01:21:08;;;;;;;;;;;-1.60;99.90;;;;;;5013536;28;19931;-63
2022/12/11 01:23:36;;;;;;;;;;;-1.60;99.90;;;;;;5012332;28;20979;-65
2022/12/11 01:26:03;;;;;;;;;;;-1.60;99.90;;;;;;5012586;28;20507;-63
2022/12/11 01:28:30;;;;;;;;;;;-1.60;99.90;;;;;;5013601;28;20571;-63
2022/12/11 01:30:57;;;;;;;;;;;-1.60;99.90;;;;;;5011952;28;20291;-64
2022/12/11 01:33:23;;;;;;;;;;;-1.50;99.90;;;;;;5015936;28;19925;-63
2022/12/11 01:35:50;;;;;;;;;;;-1.50;99.90;;;;;;5013077;28;20240;-63
2022/12/11 01:38:17;;;;;;;;;;;-1.50;99.90;;;;;;5012638;28;20220;-63
2022/12/11 01:40:47;;;;;;;;;;;-1.50;99.90;;;;;;5013781;28;19948;-63
2022/12/11 01:43:19;;;;;;;;;;;-1.50;99.90;;;;;;5012536;28;20030;-63
2022/12/11 01:45:47;;;;;;;;;;;-1.50;99.90;;;;;;5010514;28;19925;-64
2022/12/11 01:48:18;;;;;;;;;;;-1.50;99.90;;;;;;5010744;28;20024;-63
2022/12/11 01:50:49;;;;;;;;;;;-1.50;99.90;;;;;;5012079;28;20070;-63
2022/12/11 01:53:19;;;;;;;;;;;-1.50;99.90;;;;;;5014325;28;20489;-63
2022/12/11 01:55:47;;;;;;;;;;;-1.50;99.90;;;;;;5011301;28;20231;-63
2022/12/11 01:58:15;;;;;;;;;;;-1.50;99.90;;;;;;5012212;28;19932;-63
2022/12/11 02:00:41;;;;;;;;;;;-1.50;99.90;;;;;;5014085;28;19978;-64
2022/12/11 02:03:08;;;;;;;;;;;-1.50;99.90;;;;;;5012879;28;19925;-64
2022/12/11 02:05:35;;;;;;;;;;;-1.50;99.90;;;;;;5014307;28;20461;-63
2022/12/11 02:08:02;;;;;;;;;;;-1.50;99.90;;;;;;5012606;28;19924;-63
2022/12/11 02:10:40;;;;;;;;;;;-1.60;99.90;;;;;;5012575;28;20031;-63
2022/12/11 02:13:11;;;;;;;;;;;-1.60;99.90;;;;;;5010327;28;19925;-63
2022/12/11 02:15:47;;;;;;;;;;;-1.60;99.90;;;;;;5012560;28;20021;-62
2022/12/11 02:18:29;;;;;;;;;;;-1.60;99.90;;;;;;5010297;28;20007;-63
2022/12/11 02:21:08;;;;;;;;;;;-1.60;99.90;;;;;;5013328;28;20351;-62
2022/12/11 02:23:46;;;;;;;;;;;-1.50;99.90;;;;;;5008879;28;19986;-63
2022/12/11 02:26:25;;;;;;;;;;;-1.60;99.90;;;;;;5012339;28;20469;-63
2022/12/11 02:28:57;;;;;;;;;;;-1.60;99.90;;;;;;5011190;28;19929;-63
2022/12/11 02:31:32;;;;;;;;;;;-1.60;99.90;;;;;;5013451;28;20394;-63
2022/12/11 02:34:18;;;;;;;;;;;-1.60;99.90;;;;;;5013103;28;19925;-62
2022/12/11 02:36:51;;;;;;;;;;;-1.60;99.90;;;;;;5009536;28;19929;-63
2022/12/11 02:39:21;;;;;;;;;;;-1.60;99.90;;;;;;5013095;28;19925;-63
2022/12/11 02:41:49;;;;;;;;;;;-1.60;99.90;;;;;;5012029;28;20387;-63
2022/12/11 02:44:21;;;;;;;;;;;-1.60;99.90;;;;;;5011030;28;19925;-63
2022/12/11 02:46:48;;;;;;;;;;;-1.50;99.90;;;;;;5017648;28;19956;-64
2022/12/11 02:49:15;;;;;;;;;;;-1.50;99.90;;;;;;5008434;28;19925;-64
2022/12/11 02:51:43;;;;;;;;;;;-1.50;99.90;;;;;;5014431;28;20372;-65
2022/12/11 02:54:16;;;;;;;;;;;-1.60;99.90;;;;;;5010670;28;19936;-66
2022/12/11 02:56:45;;;;;;;;;;;-1.50;99.90;;;;;;5008673;28;19925;-64
2022/12/11 02:59:14;;;;;;;;;;;-1.50;99.90;;;;;;5028709;28;19933;-65
2022/12/11 03:01:41;;;;;;;;;;;-1.50;99.90;;;;;;5042496;28;20607;-65
2022/12/11 03:04:08;;;;;;;;;;;-1.50;99.90;;;;;;5011428;28;19928;-65
2022/12/11 03:06:36;;;;;;;;;;;-1.50;99.90;;;;;;5013462;28;20036;-63
2022/12/11 03:09:04;;;;;;;;;;;-1.50;99.90;;;;;;5020354;28;19925;-64
2022/12/11 03:11:30;;;;;;;;;;;-1.50;99.90;;;;;;5012108;28;20191;-66
2022/12/11 03:13:57;;;;;;;;;;;-1.50;99.90;;;;;;5014365;28;19925;-65
2022/12/11 03:16:43;;;;;;;;;;;-1.50;99.90;;;;;;5015880;28;19924;-65
2022/12/11 03:19:17;;;;;;;;;;;-1.50;99.90;;;;;;5015758;28;19924;-67
2022/12/11 03:21:49;;;;;;;;;;;-1.60;99.90;;;;;;5016564;28;19925;-68
2022/12/11 03:24:38;;;;;;;;;;;-1.50;99.90;;;;;;5017008;28;20028;-67
2022/12/11 03:27:23;;;;;;;;;;;-1.50;99.90;;;;;;5015855;28;19925;-66
2022/12/11 03:29:56;;;;;;;;;;;-1.50;99.90;;;;;;5018621;28;19959;-64
2022/12/11 03:32:26;;;;;;;;;;;-1.50;99.90;;;;;;5016734;28;20767;-66
2022/12/11 03:34:55;;;;;;;;;;;-1.50;99.90;;;;;;5044563;28;19932;-67
2022/12/11 03:37:25;;;;;;;;;;;-1.50;99.90;;;;;;5013508;28;20563;-65
2022/12/11 03:39:55;;;;;;;;;;;-1.50;99.90;;;;;;5018321;28;19924;-63
2022/12/11 03:42:23;;;;;;;;;;;-1.50;99.90;;;;;;5045942;28;20435;-62
2022/12/11 03:44:50;;;;;;;;;;;-1.50;99.90;;;;;;5015172;28;19931;-63
2022/12/11 03:47:20;;;;;;;;;;;-1.50;99.90;;;;;;5012432;28;19932;-66
2022/12/11 03:49:47;;;;;;;;;;;-1.50;99.90;;;;;;5012073;28;19925;-68
2022/12/11 03:52:14;;;;;;;;;;;-1.50;99.90;;;;;;5016172;28;20035;-64
2022/12/11 03:54:43;;;;;;;;;;;-1.60;99.90;;;;;;5016752;28;19927;-65
2022/12/11 03:57:12;;;;;;;;;;;-1.50;99.90;;;;;;5046330;28;20386;-64
2022/12/11 03:59:38;;;;;;;;;;;-1.60;99.90;;;;;;5016449;28;20390;-67
2022/12/11 04:02:09;;;;;;;;;;;-1.60;99.90;;;;;;5047965;28;20347;-64
2022/12/11 04:04:37;;;;;;;;;;;-1.60;99.90;;;;;;5013706;28;20383;-64
2022/12/11 04:07:04;;;;;;;;;;;-1.60;99.90;;;;;;5013137;28;19924;-63
2022/12/11 04:09:30;;;;;;;;;;;-1.60;99.90;;;;;;5013097;28;20203;-65
2022/12/11 04:11:57;;;;;;;;;;;-1.60;99.90;;;;;;5015124;28;20406;-66
2022/12/11 04:17:09;;;;;;;;;;;-1.60;99.90;;;;;;5017211;28;19979;-67
2022/12/11 04:25:07;;;;;;;;;;;-1.60;99.90;;;;;;5017030;28;20080;-64
2022/12/11 04:27:49;;;;;;;;;;;-1.60;99.90;;;;;;5050341;28;20179;-64
2022/12/11 04:30:18;;;;;;;;;;;-1.60;99.90;;;;;;5018044;28;19932;-62
2022/12/11 04:32:44;;;;;;;;;;;-1.60;99.90;;;;;;5014301;28;20118;-63
2022/12/11 04:35:11;;;;;;;;;;;-1.60;99.90;;;;;;5014556;28;19925;-64
2022/12/11 04:37:38;;;;;;;;;;;-1.60;99.90;;;;;;5012801;28;20134;-64
2022/12/11 04:40:06;;;;;;;;;;;-1.60;99.90;;;;;;5044094;28;20446;-64
2022/12/11 04:42:33;;;;;;;;;;;-1.60;99.90;;;;;;5013862;28;19925;-64
2022/12/11 04:44:59;;;;;;;;;;;-1.60;99.90;;;;;;5014959;28;20374;-63
2022/12/11 04:47:26;;;;;;;;;;;-1.60;99.90;;;;;;5013512;28;19929;-63
2022/12/11 04:49:53;;;;;;;;;;;-1.60;99.90;;;;;;5015366;28;19932;-63
2022/12/11 04:52:19;;;;;;;;;;;-1.70;99.90;;;;;;5013545;28;19974;-64
2022/12/11 04:54:46;;;;;;;;;;;-1.70;99.90;;;;;;5014078;28;20011;-63
2022/12/11 04:57:13;;;;;;;;;;;-1.70;99.90;;;;;;5012623;28;20258;-62
2022/12/11 04:59:40;;;;;;;;;;;-1.70;99.90;;;;;;5010167;28;19971;-62
2022/12/11 05:02:06;;;;;;;;;;;-1.70;99.90;;;;;;5014394;28;20643;-63
2022/12/11 05:04:34;;;;;;;;;;;-1.70;99.90;;;;;;5015517;28;19925;-63
2022/12/11 05:07:01;;;;;;;;;;;-1.80;99.90;;;;;;5013311;28;19951;-63
2022/12/11 05:09:28;;;;;;;;;;;-1.80;99.90;;;;;;5012942;28;20397;-63
2022/12/11 05:11:55;;;;;;;;;;;-1.80;99.90;;;;;;5012757;28;19924;-63
2022/12/11 05:14:21;;;;;;;;;;;-1.80;99.90;;;;;;5014100;28;20431;-61
2022/12/11 05:16:48;;;;;;;;;;;-1.80;99.90;;;;;;5013324;28;20209;-63
2022/12/11 05:19:15;;;;;;;;;;;-1.80;99.90;;;;;;5013779;28;19964;-62
2022/12/11 05:21:41;;;;;;;;;;;-1.90;99.90;;;;;;5012268;28;19925;-64
2022/12/11 05:24:08;;;;;;;;;;;-1.90;99.90;;;;;;5013403;28;19965;-64
2022/12/11 05:26:35;;;;;;;;;;;-1.80;99.90;;;;;;5017406;28;19925;-63
2022/12/11 05:29:02;;;;;;;;;;;-1.90;99.90;;;;;;5012990;28;20033;-63
2022/12/11 05:31:28;;;;;;;;;;;-1.90;99.90;;;;;;5012030;28;19924;-63
2022/12/11 05:33:55;;;;;;;;;;;-1.90;99.90;;;;;;5013040;28;19925;-63
2022/12/11 05:36:29;;;;;;;;;;;-1.90;99.90;;;;;;5043542;28;19924;-64
2022/12/11 05:38:57;;;;;;;;;;;-2.00;99.90;;;;;;5015036;28;20181;-62
2022/12/11 05:41:25;;;;;;;;;;;-1.90;99.90;;;;;;5013671;28;20022;-64
2022/12/11 05:43:51;;;;;;;;;;;-2.00;99.90;;;;;;5011195;28;20324;-65
2022/12/11 05:46:19;;;;;;;;;;;-2.00;99.90;;;;;;5017229;28;20381;-64
2022/12/11 05:48:48;;;;;;;;;;;-2.00;99.90;;;;;;5012527;28;19932;-64
2022/12/11 05:51:15;;;;;;;;;;;-2.00;99.90;;;;;;5041274;28;20011;-63
2022/12/11 05:53:42;;;;;;;;;;;-2.00;99.90;;;;;;5013667;28;20242;-64
2022/12/11 05:56:10;;;;;;;;;;;-2.00;99.90;;;;;;5009694;28;20295;-63
2022/12/11 05:58:37;;;;;;;;;;;-2.00;99.90;;;;;;5043426;28;19929;-63
2022/12/11 06:01:08;;;;;;;;;;;-2.00;99.90;;;;;;5011330;28;19987;-63
2022/12/11 06:03:35;;;;;;;;;;;-2.10;99.90;;;;;;5008657;28;20162;-63
2022/12/11 06:06:02;;;;;;;;;;;-2.10;99.90;;;;;;5010405;28;19925;-64
2022/12/11 06:08:29;;;;;;;;;;;-2.10;99.90;;;;;;5011379;28;20191;-63
2022/12/11 06:10:56;;;;;;;;;;;-2.10;99.90;;;;;;5012817;28;20301;-64
2022/12/11 06:13:23;;;;;;;;;;;-2.10;99.90;;;;;;5011348;28;20167;-65
2022/12/11 06:15:50;;;;;;;;;;;-2.10;99.90;;;;;;5013898;28;19955;-62
2022/12/11 06:18:16;;;;;;;;;;;-2.20;99.90;;;;;;5044071;28;20006;-64
2022/12/11 06:20:43;;;;;;;;;;;-2.20;99.90;;;;;;5010164;28;19925;-64
2022/12/11 06:23:10;;;;;;;;;;;-2.20;99.90;;;;;;5012241;28;20019;-63
2022/12/11 06:25:37;;;;;;;;;;;-2.20;99.90;;;;;;5041994;28;20023;-65
2022/12/11 06:28:04;;;;;;;;;;;-2.20;99.90;;;;;;5012673;28;19948;-64
2022/12/11 06:30:30;;;;;;;;;;;-2.20;99.90;;;;;;5012258;28;20113;-64
2022/12/11 06:33:05;;;;;;;;;;;-2.30;99.90;;;;;;5041707;28;19952;-64
2022/12/11 06:35:31;;;;;;;;;;;-2.30;99.90;;;;;;5013979;28;19925;-63
2022/12/11 06:38:05;;;;;;;;;;;-2.30;99.90;;;;;;5012482;28;19933;-64
2022/12/11 06:40:32;;;;;;;;;;;-2.30;99.90;;;;;;5012493;28;20011;-63
2022/12/11 06:42:59;;;;;;;;;;;-2.30;99.90;;;;;;5012722;28;19972;-64
2022/12/11 06:45:25;;;;;;;;;;;-2.30;99.90;;;;;;5011163;28;19925;-64
2022/12/11 06:47:52;;;;;;;;;;;-2.40;99.90;;;;;;5012307;28;20142;-63
2022/12/11 06:50:19;;;;;;;;;;;-2.40;99.90;;;;;;5013818;28;19935;-63
2022/12/11 06:52:45;;;;;;;;;;;-2.40;99.90;;;;;;5007007;28;20642;-63
2022/12/11 06:55:12;;;;;;;;;;;-2.40;99.90;;;;;;5012202;28;19924;-52
2022/12/11 06:57:39;;;;;;;;;;;-2.50;99.90;;;;;;5012352;28;20031;-52
2022/12/11 07:00:06;;;;;;;;;;;-2.40;99.90;;;;;;5011267;28;19932;-55
2022/12/11 07:02:33;;;;;;;;;;;-2.50;99.90;;;;;;5012493;28;20470;-54
2022/12/11 07:04:59;;;;;;;;;;;-2.50;99.90;;;;;;5013356;28;19925;-54
2022/12/11 07:07:26;;;;;;;;;;;-2.50;99.90;;;;;;5010807;28;19967;-55
2022/12/11 07:09:53;;;;;;;;;;;-2.50;99.90;;;;;;5011482;28;19925;-54
2022/12/11 07:12:19;;;;;;;;;;;-2.50;99.90;;;;;;5013359;28;19975;-53
2022/12/11 07:14:46;;;;;;;;;;;-2.50;99.90;;;;;;5013430;28;20026;-55
2022/12/11 07:17:13;;;;;;;;;;;-2.50;99.90;;;;;;5044452;28;20032;-54
2022/12/11 07:19:40;;;;;;;;;;;-2.50;99.90;;;;;;5010527;28;20383;-56
2022/12/11 07:22:07;;;;;;;;;;;-2.50;99.90;;;;;;5011275;28;20411;-54
2022/12/11 07:24:33;;;;;;;;;;;-2.50;99.90;;;;;;5007951;28;20450;-53
2022/12/11 07:27:00;;;;;;;;;;;-2.50;99.90;;;;;;5044557;28;19925;-55
2022/12/11 07:29:27;;;;;;;;;;;-2.50;99.90;;;;;;5044626;28;19932;-53
2022/12/11 07:31:53;;;;;;;;;;;-2.50;99.90;;;;;;5011869;28;20319;-54
2022/12/11 07:34:20;;;;;;;;;;;-2.50;99.90;;;;;;5013940;28;19925;-53
2022/12/11 07:36:47;;;;;;;;;;;-2.50;99.90;;;;;;5011571;28;20366;-56
2022/12/11 07:39:14;;;;;;;;;;;-2.50;99.90;;;;;;5012572;28;19928;-55
2022/12/11 07:41:40;;;;;;;;;;;-2.50;99.90;;;;;;5011415;28;19931;-57
2022/12/11 07:44:09;;;;;;;;;;;-2.50;99.90;;;;;;5011162;28;20211;-55
2022/12/11 07:46:36;;;;;;;;;;;-2.50;99.90;;;;;;5011080;28;19928;-54
2022/12/11 07:49:04;;;;;;;;;;;-2.50;99.90;;;;;;5013100;28;20222;-53
2022/12/11 07:51:31;;;;;;;;;;;-2.50;99.90;;;;;;5009734;28;19924;-55
2022/12/11 07:53:59;;;;;;;;;;;-2.40;99.90;;;;;;5010120;28;20018;-54
2022/12/11 07:56:27;;;;;;;;;;;-2.40;99.90;;;;;;5010909;28;20583;-55
2022/12/11 07:58:54;;;;;;;;;;;-2.40;99.90;;;;;;5011220;28;19956;-54
2022/12/11 08:01:22;;;;;;;;;;;-2.40;99.90;;;;;;5016282;28;20345;-54
2022/12/11 08:03:49;;;;;;;;;;;-2.30;99.90;;;;;;5016188;28;19986;-55
2022/12/11 08:06:16;;;;;;;;;;;-2.40;99.90;;;;;;5013311;28;20270;-54
2022/12/11 08:08:43;;;;;;;;;;;-2.40;99.90;;;;;;5015363;28;20451;-55
2022/12/11 08:11:11;;;;;;;;;;;-2.30;99.90;;;;;;5015252;28;19931;-54
2022/12/11 08:13:38;;;;;;;;;;;-2.30;99.90;;;;;;5016775;28;20577;-53
2022/12/11 08:16:06;;;;;;;;;;;-2.30;99.90;;;;;;5017058;28;19928;-55
2022/12/11 08:18:33;;;;;;;;;;;-2.40;99.90;;;;;;5016558;28;19924;-54
2022/12/11 08:21:17;;;;;;;;;;;-2.30;99.90;;;;;;5015402;28;19925;-53
2022/12/11 08:23:44;;;;;;;;;;;-2.40;99.90;;;;;;5015458;28;19929;-54
2022/12/11 08:26:14;;;;;;;;;;;-2.30;99.90;;;;;;5014689;28;19942;-51
2022/12/11 08:28:41;;;;;;;;;;;-2.30;99.90;;;;;;5014951;28;19932;-54
2022/12/11 08:31:08;;;;;;;;;;;-2.30;99.90;;;;;;5013484;28;19921;-54
2022/12/11 08:33:36;;;;;;;;;;;-2.30;99.90;;;;;;5022537;28;20013;-53
2022/12/11 08:36:06;;;;;;;;;;;-2.20;99.90;;;;;;5013300;28;19927;-54
2022/12/11 08:38:33;;;;;;;;;;;-2.20;99.90;;;;;;5014995;28;19939;-55
2022/12/11 08:41:09;;;;;;;;;;;-2.20;99.90;;;;;;5013409;28;19931;-55
2022/12/11 08:43:35;;;;;;;;;;;-2.20;99.90;;;;;;5017214;28;20004;-54
2022/12/11 08:46:02;;;;;;;;;;;-2.10;99.90;;;;;;5017062;28;19944;-54
2022/12/11 08:48:29;;;;;;;;;;;-2.10;99.90;;;;;;5013641;28;19925;-57
2022/12/11 08:51:00;;;;;;;;;;;-2.00;99.90;;;;;;5015668;28;20442;-56
2022/12/11 08:53:30;;;;;;;;;;;-2.00;99.90;;;;;;5014377;28;19933;-55
2022/12/11 08:56:00;;;;;;;;;;;-1.90;99.90;;;;;;5013369;28;19932;-57
2022/12/11 08:58:27;;;;;;;;;;;-1.90;99.90;;;;;;5014942;28;19926;-55
2022/12/11 09:00:54;;;;;;;;;;;-1.80;99.90;;;;;;5043527;28;19932;-54
2022/12/11 09:03:21;;;;;;;;;;;-1.70;99.90;;;;;;5016414;28;20471;-52
2022/12/11 09:05:47;;;;;;;;;;;-1.60;99.90;;;;;;5016270;28;20232;-58
2022/12/11 09:08:14;;;;;;;;;;;-1.60;99.90;;;;;;5014802;28;20393;-56
2022/12/11 09:10:41;;;;;;;;;;;-1.60;99.90;;;;;;5012105;28;20147;-55
2022/12/11 09:13:08;;;;;;;;;;;-1.50;99.90;;;;;;5012859;28;20242;-55
2022/12/11 09:15:35;;;;;;;;;;;-1.50;99.90;;;;;;5014380;28;20306;-54
2022/12/11 09:18:01;;;;;;;;;;;-1.40;99.90;;;;;;5046090;28;19928;-55
2022/12/11 09:20:28;;;;;;;;;;;-1.30;99.90;;;;;;5015115;28;19924;-54
2022/12/11 09:22:55;;;;;;;;;;;-1.30;99.90;;;;;;5013312;28;19935;-55
2022/12/11 09:25:22;;;;;;;;;;;-1.20;99.90;;;;;;5012457;28;19933;-54
2022/12/11 09:27:49;;;;;;;;;;;-1.10;99.90;;;;;;5012640;28;20137;-54
2022/12/11 09:30:16;;;;;;;;;;;-1.00;99.90;;;;;;5012459;28;19932;-54
2022/12/11 09:32:42;;;;;;;;;;;-0.90;99.90;;;;;;5012836;28;20130;-57
2022/12/11 09:35:10;;;;;;;;;;;-0.80;99.90;;;;;;5014590;28;19952;-63
2022/12/11 09:37:37;;;;;;;;;;;-0.70;99.90;;;;;;5013808;28;19928;-53
2022/12/11 09:40:03;;;;;;;;;;;-0.60;99.90;;;;;;5015239;28;20188;-53
2022/12/11 09:42:52;;;;;;;;;;;-0.50;99.90;;;;;;5013515;28;19998;-53
2022/12/11 09:45:19;;;;;;;;;;;-0.30;99.90;;;;;;5021469;28;19960;-52
2022/12/11 09:47:50;;;;;;;;;;;-0.20;99.90;;;;;;5045792;28;19964;-53
2022/12/11 09:50:24;;;;;;;;;;;-0.20;99.90;;;;;;5013748;28;19936;-54
2022/12/11 09:52:50;;;;;;;;;;;-0.20;99.90;;;;;;5014540;28;19932;-56
2022/12/11 09:55:19;;;;;;;;;;;-0.20;99.90;;;;;;5010174;28;19932;-55
2022/12/11 09:58:13;;;;;;;;;;;-0.20;99.90;;;;;;5013475;28;19951;-57
2022/12/11 10:00:44;;;;;;;;;;;-0.20;99.90;;;;;;5003566;28;19933;-55
2022/12/11 10:03:38;;;;;;;;;;;-0.30;99.90;;;;;;5012570;28;20040;-54
2022/12/11 10:06:10;;;;;;;;;;;-0.20;99.90;;;;;;5014516;28;20002;-56
2022/12/11 10:08:46;;;;;;;;;;;-0.20;99.90;;;;;;5014889;28;19929;-53
2022/12/11 10:11:32;;;;;;;;;;;-0.20;99.90;;;;;;5015741;28;20184;-54
2022/12/11 10:14:07;;;;;;;;;;;-0.10;99.90;;;;;;5014289;28;20024;-52
2022/12/11 10:16:36;;;;;;;;;;;0.10;99.90;;;;;;5016593;28;20047;-54
2022/12/11 10:19:03;;;;;;;;;;;0.20;99.90;;;;;;5013507;28;20176;-53
2022/12/11 10:21:35;;;;;;;;;;;0.30;99.90;;;;;;5012148;28;20607;-55
2022/12/11 10:24:03;;;;;;;;;;;0.40;99.90;;;;;;5013170;28;19990;-52
2022/12/11 10:26:30;;;;;;;;;;;0.50;99.90;;;;;;5014300;28;19955;-56
2022/12/11 10:28:57;;;;;;;;;;;0.80;99.90;;;;;;5013241;28;19971;-53
2022/12/11 10:31:27;;;;;;;;;;;1.20;99.90;;;;;;5012741;28;20353;-55
2022/12/11 10:34:01;;;;;;;;;;;1.60;99.90;;;;;;5014817;28;20720;-53
2022/12/11 10:36:35;;;;;;;;;;;2.20;99.90;;;;;;5014371;28;20338;-54
2022/12/11 10:39:02;;;;;;;;;;;2.70;99.90;;;;;;5011422;28;19925;-53
2022/12/11 10:41:34;;;;;;;;;;;3.00;99.90;;;;;;5013603;28;19933;-53
2022/12/11 10:44:12;;;;;;;;;;;3.30;99.90;;;;;;5014072;28;20118;-51
2022/12/11 10:46:39;;;;;;;;;;;3.60;99.90;;;;;;5013151;28;20649;-55
2022/12/11 10:49:18;;;;;;;;;;;4.00;99.90;;;;;;5012114;28;20215;-60
2022/12/11 10:51:45;;;;;;;;;;;4.30;99.90;;;;;;5013234;28;20046;-55
2022/12/11 10:54:32;;;;;;;;;;;4.60;99.90;;;;;;5010826;28;19932;-50
2022/12/11 10:57:00;;;;;;;;;;;4.80;99.90;;;;;;5010884;28;19991;-54
2022/12/11 10:59:43;;;;;;;;;;;5.00;99.90;;;;;;5014633;28;19925;-55
2022/12/11 11:02:27;;;;;;;;;;;5.20;99.90;;;;;;5013077;28;20299;-53
2022/12/11 11:04:55;;;;;;;;;;;5.30;99.90;;;;;;5011399;28;20363;-53
2022/12/11 11:07:24;;;;;;;;;;;5.40;99.90;;;;;;5012752;28;19924;-52
2022/12/11 11:10:01;;;;;;;;;;;5.60;98.90;;;;;;5010767;28;20028;-53
2022/12/11 11:12:28;;;;;;;;;;;5.60;97.40;;;;;;5010774;28;19972;-57
2022/12/11 11:15:02;;;;;;;;;;;5.60;96.50;;;;;;5013284;28;19964;-54
2022/12/11 11:17:30;;;;;;;;;;;5.60;90.60;;;;;;5008887;28;20019;-51
2022/12/11 11:20:05;;;;;;;;;;;5.50;93.00;;;;;;5027316;28;20334;-54
2022/12/11 11:22:31;;;;;;;;;;;5.60;93.30;;;;;;5009866;28;19925;-54
2022/12/11 11:24:58;;;;;;;;;;;5.60;93.10;;;;;;5010294;28;20831;-56
2022/12/11 11:27:32;;;;;;;;;;;5.70;91.80;;;;;;5014037;28;19925;-54
2022/12/11 11:30:00;;;;;;;;;;;5.70;91.60;;;;;;5011769;28;20440;-55
2022/12/11 11:32:31;;;;;;;;;;;5.70;91.70;;;;;;5011786;28;20095;-55
2022/12/11 11:35:25;;;;;;;;;;;5.80;93.00;;;;;;5014211;28;20275;-55
2022/12/11 11:38:10;;;;;;;;;;;5.80;92.30;;;;;;5016951;28;19932;-54
2022/12/11 11:40:39;;;;;;;;;;;5.80;90.40;;;;;;5017191;28;19931;-55
2022/12/11 11:43:06;;;;;;;;;;;5.80;86.00;;;;;;5014470;28;20390;-55
2022/12/11 11:45:45;;;;;;;;;;;5.80;85.10;;;;;;5015537;28;19951;-53
2022/12/11 11:48:21;;;;;;;;;;;5.80;85.90;;;;;;5014706;28;20264;-53
2022/12/11 11:50:49;;;;;;;;;;;5.80;86.80;;;;;;5014201;28;19948;-54
2022/12/11 11:53:19;;;;;;;;;;;5.80;89.10;;;;;;5013991;28;19925;-53
2022/12/11 11:55:50;;;;;;;;;;;5.90;85.60;;;;;;5015617;28;20031;-55
2022/12/11 11:58:21;;;;;;;;;;;5.80;87.00;;;;;;5013642;28;19955;-56
2022/12/11 12:00:49;;;;;;;;;;;5.60;87.20;;;;;;5015070;28;20018;-54
2022/12/11 12:03:17;;;;;;;;;;;5.30;84.10;;;;;;5016159;28;19925;-53
2022/12/11 12:05:43;;;;;;;;;;;4.90;86.60;;;;;;5016872;28;19924;-56
2022/12/11 12:08:11;;;;;;;;;;;4.70;91.10;;;;;;5015953;28;19944;-54
2022/12/11 12:11:00;;;;;;;;;;;4.60;92.20;;;;;;5016564;28;20429;-57
2022/12/11 12:13:45;;;;;;;;;;;4.60;91.30;;;;;;5014092;28;19929;-55
2022/12/11 12:16:26;;;;;;;;;;;4.60;91.00;;;;;;5017578;28;20444;-53
2022/12/11 12:19:32;;;;;;;;;;;4.70;89.60;;;;;;5014737;28;19935;-53
2022/12/11 12:22:03;;;;;;;;;;;4.80;85.20;;;;;;5016165;28;20280;-53
2022/12/11 12:24:36;;;;;;;;;;;4.90;87.60;;;;;;5018171;28;19925;-54
2022/12/11 12:27:08;;;;;;;;;;;5.00;83.00;;;;;;5012543;28;20297;-53
2022/12/11 12:30:03;;;;;;;;;;;5.10;85.10;;;;;;5015620;28;20418;-54
2022/12/11 12:32:54;;;;;;;;;;;5.20;82.50;;;;;;5011103;28;20330;-53
2022/12/11 12:35:43;;;;;;;;;;;5.30;80.80;;;;;;5014372;28;20015;-53
2022/12/11 12:38:14;;;;;;;;;;;5.20;76.60;;;;;;5012696;28;19972;-54
2022/12/11 12:40:50;;;;;;;;;;;5.30;78.30;;;;;;5015255;28;20399;-53
2022/12/11 12:43:17;;;;;;;;;;;5.40;73.10;;;;;;5014599;28;19924;-53
2022/12/11 12:45:49;;;;;;;;;;;5.40;73.30;;;;;;5046690;28;20321;-54
2022/12/11 12:48:16;;;;;;;;;;;5.50;74.30;;;;;;5016782;28;19929;-54
2022/12/11 12:50:45;;;;;;;;;;;5.70;73.20;;;;;;5016022;28;19980;-53
2022/12/11 12:53:14;;;;;;;;;;;5.70;69.30;;;;;;5013803;28;19925;-55
2022/12/11 12:55:42;;;;;;;;;;;5.70;69.80;;;;;;5013061;28;20104;-53
2022/12/11 12:58:26;;;;;;;;;;;5.70;71.10;;;;;;5010162;28;20299;-53
2022/12/11 13:00:53;;;;;;;;;;;5.70;72.20;;;;;;5014487;28;20062;-55
2022/12/11 13:03:21;;;;;;;;;;;5.70;72.10;;;;;;5014496;28;19931;-52
2022/12/11 13:05:57;;;;;;;;;;;5.50;77.10;;;;;;5014016;28;20036;-49
2022/12/11 13:08:26;;;;;;;;;;;5.50;80.90;;;;;;5016789;28;19928;-56
2022/12/11 13:11:00;;;;;;;;;;;5.40;81.00;;;;;;5014739;28;19925;-51
2022/12/11 13:13:35;;;;;;;;;;;5.40;81.40;;;;;;5015853;28;19929;-49
2022/12/11 13:16:08;;;;;;;;;;;5.20;83.10;;;;;;5014820;28;20358;-48
2022/12/11 13:18:36;;;;;;;;;;;5.10;84.40;;;;;;5012596;28;19932;-52
2022/12/11 13:21:24;;;;;;;;;;;5.10;84.40;;;;;;5014257;28;20754;-48
2022/12/11 13:23:50;;;;;;;;;;;5.00;83.10;;;;;;5014304;28;19932;-53
2022/12/11 13:26:28;;;;;;;;;;;4.90;83.30;;;;;;5016197;28;20027;-50
2022/12/11 13:28:56;;;;;;;;;;;4.90;80.40;;;;;;5015083;28;20158;-52
2022/12/11 13:31:32;;;;;;;;;;;5.00;79.40;;;;;;5010914;28;19937;-50
2022/12/11 13:34:06;;;;;;;;;;;5.00;81.30;;;;;;5013407;28;19924;-53
2022/12/11 13:36:33;;;;;;;;;;;4.90;81.30;;;;;;5015684;28;19925;-52
2022/12/11 13:39:03;;;;;;;;;;;4.90;82.50;;;;;;5012897;28;20294;-53
2022/12/11 13:41:32;;;;;;;;;;;4.80;81.40;;;;;;5012941;28;20006;-54
2022/12/11 13:43:59;;;;;;;;;;;4.70;83.30;;;;;;5013268;28;20399;-53
2022/12/11 13:46:28;;;;;;;;;;;4.60;84.50;;;;;;5012097;28;20248;-54
2022/12/11 13:48:59;;;;;;;;;;;4.60;86.20;;;;;;5012110;28;20061;-52
2022/12/11 13:51:28;;;;;;;;;;;4.60;86.80;;;;;;5014517;28;20270;-52
2022/12/11 13:54:24;;;;;;;;;;;4.50;87.90;;;;;;5015406;28;19925;-55
2022/12/11 13:57:13;;;;;;;;;;;4.50;88.60;;;;;;5009716;28;20488;-52
2022/12/11 13:59:42;;;;;;;;;;;4.30;89.00;;;;;;5013992;28;20441;-51
2022/12/11 14:02:14;;;;;;;;;;;4.20;90.30;;;;;;5012058;28;20344;-51
2022/12/11 14:04:40;;;;;;;;;;;4.10;91.10;;;;;;5012100;28;20007;-52
2022/12/11 14:07:09;;;;;;;;;;;3.80;92.00;;;;;;5022124;28;19924;-50
2022/12/11 14:09:42;;;;;;;;;;;3.70;93.50;;;;;;5013482;28;19924;-51
2022/12/11 14:12:17;;;;;;;;;;;3.60;94.30;;;;;;5014051;28;19971;-52
2022/12/11 14:14:55;;;;;;;;;;;3.40;94.90;;;;;;5013552;28;20614;-54
2022/12/11 14:17:24;;;;;;;;;;;3.20;95.30;;;;;;5043075;28;19948;-54
2022/12/11 14:19:52;;;;;;;;;;;2.80;96.40;;;;;;5008657;28;20399;-54
2022/12/11 14:22:20;;;;;;;;;;;2.50;98.10;;;;;;5011699;28;19924;-55
2022/12/11 14:24:48;;;;;;;;;;;2.20;99.90;;;;;;5013902;28;20071;-54
2022/12/11 14:27:16;;;;;;;;;;;1.80;99.90;;;;;;5013357;28;19927;-53
2022/12/11 14:29:43;;;;;;;;;;;1.50;99.90;;;;;;5043558;28;20322;-53
2022/12/11 14:32:15;;;;;;;;;;;1.20;99.90;;;;;;5013755;28;20019;-53
2022/12/11 14:34:43;;;;;;;;;;;0.90;99.90;;;;;;5013867;28;19935;-53
2022/12/11 14:37:11;;;;;;;;;;;0.50;99.90;;;;;;5013662;28;20520;-53
2022/12/11 14:39:49;;;;;;;;;;;0.20;99.90;;;;;;5013833;28;20377;-55
2022/12/11 14:42:18;;;;;;;;;;;0.00;99.90;;;;;;5009650;28;19931;-54
2022/12/11 14:44:53;;;;;;;;;;;-0.20;99.90;;;;;;5020433;28;19924;-55